createdAt,value
2023-01-28T00:01:28.719Z,80.40
2023-01-28T00:03:59.092Z,80.62
2023-01-28T00:06:30.534Z,80.79
2023-01-28T00:09:01.784Z,81.00
2023-01-28T00:11:33.602Z,81.17
2023-01-28T00:14:05.878Z,81.15
2023-01-28T00:16:37.243Z,81.05
2023-01-28T00:19:08.671Z,81.12
2023-01-28T00:21:43.288Z,81.16
2023-01-28T00:24:14.719Z,81.16
2023-01-28T00:26:46.535Z,81.16
2023-01-28T00:29:18.264Z,81.14
2023-01-28T00:31:50.273Z,81.18
2023-01-28T00:34:22.806Z,81.16
2023-01-28T00:36:58.017Z,81.47
2023-01-28T00:39:30.646Z,81.45
2023-01-28T00:42:02.183Z,81.30
2023-01-28T00:44:33.705Z,81.13
2023-01-28T00:47:08.175Z,81.25
2023-01-28T00:49:38.585Z,81.43
2023-01-28T00:52:09.103Z,81.61
2023-01-28T00:54:40.805Z,81.63
2023-01-28T00:57:11.453Z,81.92
2023-01-28T00:59:41.727Z,82.17
2023-01-28T01:02:13.337Z,82.12
2023-01-28T01:04:54.764Z,82.02
2023-01-28T01:07:32.563Z,81.94
2023-01-28T01:10:04.404Z,82.21
2023-01-28T01:12:36.385Z,82.25
2023-01-28T01:15:12.323Z,82.18
2023-01-28T01:17:46.860Z,82.09
2023-01-28T01:20:20.565Z,82.02
2023-01-28T01:22:52.618Z,81.95
2023-01-28T01:25:24.385Z,82.06
2023-01-28T01:27:55.841Z,82.40
2023-01-28T01:30:46.173Z,82.36
2023-01-28T01:33:18.292Z,82.16
2023-01-28T01:35:57.420Z,82.30
2023-01-28T01:38:31.436Z,82.09
2023-01-28T01:41:04.532Z,81.97
2023-01-28T01:43:51.327Z,82.04
2023-01-28T01:46:27.622Z,81.98
2023-01-28T01:49:01.809Z,81.83
2023-01-28T01:51:35.381Z,81.89
2023-01-28T01:54:07.980Z,82.08
2023-01-28T01:56:42.714Z,82.39
2023-01-28T01:59:16.408Z,82.48
2023-01-28T02:01:47.350Z,82.39
2023-01-28T02:04:23.874Z,82.37
2023-01-28T02:06:54.517Z,82.19
2023-01-28T02:09:29.396Z,82.16
2023-01-28T02:12:02.816Z,81.98
2023-01-28T02:14:35.163Z,81.61
2023-01-28T02:17:05.778Z,81.44
2023-01-28T02:19:41.454Z,81.56
2023-01-28T02:22:35.703Z,81.45
2023-01-28T02:25:28.125Z,81.22
2023-01-28T02:28:11.047Z,81.12
2023-01-28T02:30:43.333Z,80.92
2023-01-28T02:33:17.987Z,80.39
2023-01-28T02:35:51.010Z,80.21
2023-01-28T02:38:24.988Z,80.34
2023-01-28T02:41:05.058Z,80.11
2023-01-28T02:43:40.803Z,79.71
2023-01-28T02:46:51.150Z,79.91
2023-01-28T02:49:24.462Z,79.71
2023-01-28T02:52:05.367Z,79.58
2023-01-28T02:54:43.117Z,79.45
2023-01-28T02:57:23.292Z,79.40
2023-01-28T02:59:58.872Z,79.46
2023-01-28T03:02:31.761Z,79.43
2023-01-28T03:05:06.451Z,79.29
2023-01-28T03:07:38.442Z,79.06
2023-01-28T03:10:16.122Z,79.12
2023-01-28T03:13:06.260Z,79.25
2023-01-28T03:15:58.441Z,79.34
2023-01-28T03:18:49.326Z,79.14
2023-01-28T03:21:40.884Z,79.10
2023-01-28T03:24:32.386Z,78.79
2023-01-28T03:27:28.256Z,78.98
2023-01-28T03:30:24.451Z,78.84
2023-01-28T03:33:12.978Z,78.95
2023-01-28T03:36:01.160Z,78.44
2023-01-28T03:38:34.031Z,78.46
2023-01-28T03:41:05.475Z,77.97
2023-01-28T03:43:36.006Z,78.13
2023-01-28T03:46:07.173Z,77.77
2023-01-28T03:48:37.655Z,78.16
2023-01-28T03:51:08.904Z,78.17
2023-01-28T03:53:41.256Z,78.08
2023-01-28T03:56:18.574Z,78.10
2023-01-28T03:58:56.390Z,78.16
2023-01-28T04:01:26.936Z,77.92
2023-01-28T04:03:57.265Z,77.48
2023-01-28T04:06:32.021Z,77.50
2023-01-28T04:09:21.484Z,77.84
2023-01-28T04:11:58.119Z,77.96
2023-01-28T04:14:36.717Z,77.95
2023-01-28T04:17:11.104Z,77.95
2023-01-28T04:19:42.461Z,77.76
2023-01-28T04:22:13.742Z,77.08
2023-01-28T04:24:45.391Z,76.97
2023-01-28T04:27:15.707Z,76.93
2023-01-28T04:29:46.159Z,76.80
2023-01-28T04:32:42.633Z,76.71
2023-01-28T04:35:43.064Z,76.74
2023-01-28T04:38:24.288Z,76.52
2023-01-28T04:41:02.951Z,76.27
2023-01-28T04:43:36.772Z,75.92
2023-01-28T04:46:33.382Z,75.81
2023-01-28T04:49:04.933Z,75.92
2023-01-28T04:51:43.873Z,75.69
2023-01-28T04:54:23.483Z,76.08
2023-01-28T04:56:56.962Z,76.25
2023-01-28T04:59:30.255Z,76.18
2023-01-28T05:02:03.067Z,76.43
2023-01-28T05:04:35.000Z,76.40
2023-01-28T05:07:07.166Z,76.00
2023-01-28T05:09:40.896Z,76.11
2023-01-28T05:12:14.952Z,76.28
2023-01-28T05:14:48.013Z,76.55
2023-01-28T05:17:25.104Z,76.41
2023-01-28T05:19:58.544Z,76.39
2023-01-28T05:22:34.001Z,76.54
2023-01-28T05:25:18.631Z,76.66
2023-01-28T05:27:54.089Z,76.38
2023-01-28T05:30:26.437Z,76.62
2023-01-28T05:33:03.139Z,76.76
2023-01-28T05:35:37.387Z,76.91
2023-01-28T05:38:11.045Z,76.99
2023-01-28T05:40:44.339Z,76.80
2023-01-28T05:43:16.427Z,76.75
2023-01-28T05:45:59.020Z,76.74
2023-01-28T05:48:54.219Z,76.96
2023-01-28T05:51:50.904Z,77.12
2023-01-28T05:54:26.187Z,77.10
2023-01-28T05:56:57.458Z,77.17
2023-01-28T05:59:27.927Z,77.00
2023-01-28T06:02:00.218Z,76.82
2023-01-28T06:04:30.697Z,76.92
2023-01-28T06:07:02.174Z,76.87
2023-01-28T06:09:32.684Z,76.83
2023-01-28T06:12:03.168Z,76.88
2023-01-28T06:14:38.372Z,77.03
2023-01-28T06:17:13.656Z,76.98
2023-01-28T06:20:08.405Z,76.88
2023-01-28T06:22:44.565Z,77.05
2023-01-28T06:25:14.876Z,76.96
2023-01-28T06:27:45.621Z,77.01
2023-01-28T06:30:19.088Z,77.14
2023-01-28T06:32:54.893Z,76.77
2023-01-28T06:35:26.437Z,76.88
2023-01-28T06:37:58.369Z,76.96
2023-01-28T06:40:30.709Z,76.90
2023-01-28T06:43:01.763Z,76.89
2023-01-28T06:45:33.361Z,76.90
2023-01-28T06:48:07.194Z,76.81
2023-01-28T06:50:40.962Z,76.87
2023-01-28T06:53:13.937Z,76.90
2023-01-28T06:55:44.983Z,76.69
2023-01-28T06:58:17.970Z,76.60
2023-01-28T07:00:48.931Z,76.49
2023-01-28T07:03:22.008Z,76.68
2023-01-28T07:05:52.957Z,76.58
2023-01-28T07:08:25.970Z,76.37
2023-01-28T07:10:57.971Z,76.45
2023-01-28T07:13:30.985Z,76.27
2023-01-28T07:16:04.577Z,76.45
2023-01-28T07:18:36.018Z,76.49
2023-01-28T07:21:07.696Z,76.08
2023-01-28T07:23:40.037Z,75.69
2023-01-28T07:26:12.318Z,75.49
2023-01-28T07:36:17.726Z,75.28
2023-01-28T07:38:48.054Z,75.30
2023-01-28T07:41:18.844Z,75.43
2023-01-28T07:43:49.188Z,75.54
2023-01-28T07:46:20.802Z,75.32
2023-01-28T07:48:51.198Z,75.43
2023-01-28T07:51:21.574Z,75.46
2023-01-28T07:53:52.306Z,75.62
2023-01-28T07:56:23.039Z,75.52
2023-01-28T07:58:53.506Z,75.49
2023-01-28T08:01:23.968Z,75.32
2023-01-28T08:03:54.404Z,75.08
2023-01-28T08:06:24.781Z,74.74
2023-01-28T08:08:55.210Z,75.00
2023-01-28T08:11:25.883Z,74.94
2023-01-28T08:13:56.504Z,75.12
2023-01-28T08:16:27.653Z,75.41
2023-01-28T08:18:58.115Z,75.28
2023-01-28T08:21:28.551Z,75.14
2023-01-28T08:23:58.938Z,74.68
2023-01-28T08:26:29.622Z,74.69
2023-01-28T08:28:59.966Z,74.89
2023-01-28T08:31:31.195Z,74.88
2023-01-28T08:34:02.432Z,74.75
2023-01-28T08:36:33.008Z,74.99
2023-01-28T08:39:03.417Z,74.95
2023-01-28T08:41:33.919Z,74.62
2023-01-28T08:44:04.344Z,74.50
2023-01-28T08:46:34.533Z,74.36
2023-01-28T08:49:04.945Z,74.09
2023-01-28T08:57:30.498Z,73.85
2023-01-28T09:00:00.827Z,74.00
2023-01-28T09:02:32.386Z,74.20
2023-01-28T09:05:02.959Z,74.09
2023-01-28T09:07:33.387Z,73.61
2023-01-28T09:10:03.981Z,73.32
2023-01-28T09:12:34.616Z,73.63
2023-01-28T09:15:05.920Z,73.81
2023-01-28T09:17:36.295Z,73.94
2023-01-28T09:20:08.961Z,73.54
2023-01-28T09:22:39.504Z,73.51
2023-01-28T09:25:11.288Z,73.40
2023-01-28T09:27:41.748Z,72.73
2023-01-28T09:30:14.996Z,73.03
2023-01-28T09:32:45.560Z,73.42
2023-01-28T09:35:16.566Z,73.73
2023-01-28T09:37:46.942Z,73.56
2023-01-28T09:40:20.354Z,73.53
2023-01-28T09:43:00.637Z,73.51
2023-01-28T09:45:36.392Z,73.18
2023-01-28T09:48:11.514Z,73.29
2023-01-28T09:50:45.235Z,72.71
2023-01-28T09:53:19.251Z,72.86
2023-01-28T09:55:51.505Z,72.11
2023-01-28T09:58:21.802Z,71.64
2023-01-28T10:00:59.059Z,72.14
2023-01-28T10:03:38.178Z,72.05
2023-01-28T10:06:18.604Z,72.18
2023-01-28T10:09:04.001Z,72.13
2023-01-28T10:11:48.303Z,71.88
2023-01-28T10:14:24.026Z,71.33
2023-01-28T10:16:58.494Z,70.96
2023-01-28T10:19:31.365Z,71.45
2023-01-28T10:22:04.112Z,70.60
2023-01-28T10:24:37.209Z,71.20
2023-01-28T10:27:09.693Z,71.07
2023-01-28T10:29:44.064Z,70.95
2023-01-28T10:32:24.011Z,70.89
2023-01-28T10:34:55.692Z,71.45
2023-01-28T10:37:26.209Z,71.27
2023-01-28T10:39:59.778Z,71.35
2023-01-28T10:42:33.125Z,71.14
2023-01-28T10:45:09.280Z,71.07
2023-01-28T10:47:42.400Z,71.02
2023-01-28T10:50:19.119Z,70.42
2023-01-28T10:53:00.128Z,70.76
2023-01-28T10:55:33.353Z,70.97
2023-01-28T10:58:05.546Z,70.10
2023-01-28T11:00:38.048Z,69.96
2023-01-28T11:03:17.256Z,69.43
2023-01-28T11:05:54.293Z,69.75
2023-01-28T11:08:26.267Z,69.95
2023-01-28T11:10:57.523Z,70.13
2023-01-28T11:13:29.194Z,69.49
2023-01-28T11:16:03.686Z,69.59
2023-01-28T11:18:36.693Z,70.31
2023-01-28T11:21:06.537Z,70.54
2023-01-28T11:23:43.469Z,70.63
2023-01-28T11:26:20.181Z,70.67
2023-01-28T11:28:50.842Z,70.15
2023-01-28T11:31:21.991Z,70.11
2023-01-28T11:33:54.174Z,69.86
2023-01-28T11:36:25.932Z,70.11
2023-01-28T11:38:58.200Z,70.15
2023-01-28T11:41:30.893Z,69.04
2023-01-28T11:44:12.248Z,69.27
2023-01-28T11:46:51.716Z,69.84
2023-01-28T11:49:31.584Z,69.93
2023-01-28T11:52:11.061Z,69.30
2023-01-28T11:54:48.731Z,69.61
2023-01-28T11:57:25.051Z,70.14
2023-01-28T12:00:04.179Z,69.97
2023-01-28T12:02:53.911Z,69.80
2023-01-28T12:05:44.061Z,69.67
2023-01-28T12:08:23.164Z,69.33
2023-01-28T12:11:03.570Z,68.84
2023-01-28T12:13:46.074Z,69.05
2023-01-28T12:16:28.610Z,68.84
2023-01-28T12:19:38.542Z,68.50
2023-01-28T12:22:36.864Z,68.20
2023-01-28T12:25:19.929Z,68.27
2023-01-28T12:27:56.896Z,68.07
2023-01-28T12:30:35.479Z,67.99
2023-01-28T12:33:20.174Z,67.51
2023-01-28T12:35:58.567Z,67.28
2023-01-28T12:38:41.216Z,66.91
2023-01-28T12:41:14.816Z,66.85
2023-01-28T12:43:50.382Z,66.99
2023-01-28T12:46:33.106Z,67.12
2023-01-28T12:49:07.867Z,66.56
2023-01-28T12:51:52.327Z,65.93
2023-01-28T12:54:25.922Z,66.35
2023-01-28T12:56:57.038Z,66.43
2023-01-28T12:59:31.744Z,66.49
2023-01-28T13:02:18.567Z,66.90
2023-01-28T13:04:55.478Z,67.04
2023-01-28T13:07:29.841Z,66.43
2023-01-28T13:10:05.585Z,65.78
2023-01-28T13:12:36.414Z,65.50
2023-01-28T13:15:11.824Z,65.37
2023-01-28T13:17:54.057Z,65.15
2023-01-28T13:20:38.448Z,64.87
2023-01-28T13:23:22.831Z,65.09
2023-01-28T13:25:54.437Z,65.20
2023-01-28T13:28:33.492Z,65.70
2023-01-28T13:31:13.699Z,65.37
2023-01-28T13:33:44.971Z,65.47
2023-01-28T13:36:25.972Z,65.15
2023-01-28T13:39:06.006Z,64.91
2023-01-28T13:41:54.547Z,65.28
2023-01-28T13:44:31.771Z,64.70
2023-01-28T13:47:15.836Z,64.54
2023-01-28T13:49:48.125Z,64.38
2023-01-28T13:52:21.614Z,65.06
2023-01-28T13:54:56.334Z,64.46
2023-01-28T13:57:52.968Z,64.82
2023-01-28T14:00:27.154Z,64.32
2023-01-28T14:03:16.189Z,64.79
2023-01-28T14:06:11.024Z,65.07
2023-01-28T14:08:58.527Z,65.36
2023-01-28T14:11:40.983Z,65.30
2023-01-28T14:14:27.173Z,65.08
2023-01-28T14:16:59.606Z,64.50
2023-01-28T14:19:32.701Z,63.66
2023-01-28T14:22:09.272Z,63.98
2023-01-28T14:24:40.683Z,64.76
2023-01-28T14:27:15.550Z,64.86
2023-01-28T14:29:54.769Z,65.42
2023-01-28T14:32:29.284Z,65.48
2023-01-28T14:35:02.889Z,65.11
2023-01-28T14:37:34.745Z,65.07
2023-01-28T14:40:07.503Z,63.95
2023-01-28T14:42:40.616Z,64.69
2023-01-28T14:45:33.422Z,63.95
2023-01-28T14:48:22.955Z,64.83
2023-01-28T14:51:06.392Z,64.64
2023-01-28T14:53:48.077Z,64.25
2023-01-28T14:56:25.666Z,64.31
2023-01-28T14:59:00.048Z,64.72
2023-01-28T15:01:43.792Z,65.08
2023-01-28T15:04:27.058Z,65.15
2023-01-28T15:06:55.940Z,65.13
2023-01-28T15:09:26.481Z,64.78
2023-01-28T15:11:59.894Z,64.76
2023-01-28T15:14:32.860Z,64.48
2023-01-28T15:17:01.905Z,65.02
2023-01-28T15:19:34.655Z,65.13
2023-01-28T15:22:07.265Z,65.07
2023-01-28T15:24:37.939Z,64.26
2023-01-28T15:27:13.953Z,63.96
2023-01-28T15:29:44.994Z,63.83
2023-01-28T15:32:31.065Z,63.71
2023-01-28T15:35:03.171Z,64.13
2023-01-28T15:37:34.349Z,63.98
2023-01-28T15:40:07.067Z,64.54
2023-01-28T15:42:38.470Z,64.90
2023-01-28T15:45:18.694Z,64.95
2023-01-28T15:47:49.468Z,65.03
2023-01-28T15:50:21.094Z,65.24
2023-01-28T15:52:51.967Z,65.25
2023-01-28T15:55:35.131Z,64.89
2023-01-28T15:58:33.460Z,65.04
2023-01-28T16:01:21.656Z,65.81
2023-01-28T16:04:03.245Z,65.86
2023-01-28T16:06:37.410Z,65.76
2023-01-28T16:09:15.756Z,65.67
2023-01-28T16:11:46.158Z,66.14
2023-01-28T16:14:26.284Z,66.39
2023-01-28T16:16:57.151Z,66.55
2023-01-28T16:19:34.616Z,66.54
2023-01-28T16:22:05.067Z,66.82
2023-01-28T16:24:37.118Z,67.17
2023-01-28T16:27:20.092Z,67.41
2023-01-28T16:29:50.564Z,67.60
2023-01-28T16:32:35.274Z,67.69
2023-01-28T16:35:07.869Z,67.98
2023-01-28T16:37:40.609Z,68.44
2023-01-28T16:40:15.285Z,68.55
2023-01-28T16:42:48.356Z,68.70
2023-01-28T16:45:21.134Z,68.95
2023-01-28T16:47:51.687Z,69.15
2023-01-28T16:50:22.887Z,69.35
2023-01-28T16:52:54.534Z,69.52
2023-01-28T16:55:25.111Z,69.88
2023-01-28T16:57:58.413Z,70.18
2023-01-28T17:00:31.217Z,70.28
2023-01-28T17:03:03.128Z,70.34
2023-01-28T17:05:33.528Z,70.31
2023-01-28T17:08:03.920Z,70.24
2023-01-28T17:10:34.258Z,70.18
2023-01-28T17:13:04.899Z,70.05
2023-01-28T17:15:37.002Z,69.93
2023-01-28T17:18:07.620Z,70.00
2023-01-28T17:20:40.382Z,70.12
2023-01-28T17:23:12.853Z,69.98
2023-01-28T17:25:43.590Z,70.08
2023-01-28T17:28:13.820Z,70.11
2023-01-28T17:30:44.374Z,70.04
2023-01-28T17:33:14.741Z,70.06
2023-01-28T17:35:48.895Z,69.79
2023-01-28T17:38:19.347Z,69.87
2023-01-28T17:40:51.151Z,69.91
2023-01-28T17:43:21.548Z,69.97
2023-01-28T17:45:52.088Z,69.98
2023-01-28T17:48:22.383Z,70.01
2023-01-28T17:50:53.956Z,70.07
2023-01-28T17:53:24.251Z,70.53
2023-01-28T17:55:54.613Z,70.49
2023-01-28T17:58:24.965Z,70.59
2023-01-28T18:00:55.386Z,70.84
2023-01-28T18:03:25.863Z,70.84
2023-01-28T18:06:04.205Z,70.80
2023-01-28T18:08:34.967Z,71.00
2023-01-28T18:11:06.754Z,71.17
2023-01-28T18:13:41.478Z,71.18
2023-01-28T18:16:16.069Z,71.35
2023-01-28T18:18:47.396Z,71.32
2023-01-28T18:21:42.884Z,71.25
2023-01-28T18:24:17.118Z,71.11
2023-01-28T18:26:47.620Z,71.16
2023-01-28T18:29:20.712Z,70.94
2023-01-28T18:31:51.422Z,70.89
2023-01-28T18:34:22.078Z,70.67
2023-01-28T18:36:52.342Z,70.62
2023-01-28T18:39:23.298Z,70.46
2023-01-28T18:41:56.713Z,70.38
2023-01-28T18:44:28.137Z,70.41
2023-01-28T18:46:58.759Z,70.18
2023-01-28T18:49:29.298Z,70.06
2023-01-28T18:51:59.643Z,69.89
2023-01-28T18:54:30.276Z,69.85
2023-01-28T18:57:00.786Z,69.85
2023-01-28T18:59:31.327Z,69.64
2023-01-28T19:02:02.050Z,69.26
2023-01-28T19:04:32.543Z,69.22
2023-01-28T19:07:03.808Z,68.88
2023-01-28T19:09:34.205Z,69.19
2023-01-28T19:12:05.055Z,69.18
2023-01-28T19:14:35.471Z,68.73
2023-01-28T19:17:06.949Z,68.28
2023-01-28T19:19:37.361Z,68.71
2023-01-28T19:22:08.093Z,68.86
2023-01-28T19:24:38.509Z,69.02
2023-01-28T19:27:08.814Z,69.09
2023-01-28T19:29:39.307Z,69.10
2023-01-28T19:32:09.940Z,69.05
2023-01-28T19:34:40.449Z,69.17
2023-01-28T19:37:10.794Z,68.83
2023-01-28T19:39:41.232Z,68.92
2023-01-28T19:42:11.663Z,68.90
2023-01-28T19:44:42.268Z,69.17
2023-01-28T19:47:12.870Z,69.18
2023-01-28T19:49:43.283Z,69.28
2023-01-28T19:52:13.831Z,69.31
2023-01-28T19:54:44.226Z,69.34
2023-01-28T19:57:14.872Z,69.05
2023-01-28T19:59:45.484Z,69.09
2023-01-28T20:02:15.901Z,69.20
2023-01-28T20:04:59.719Z,69.07
2023-01-28T20:07:31.528Z,69.07
2023-01-28T20:10:02.021Z,69.15
2023-01-28T20:12:32.537Z,69.37
2023-01-28T20:15:02.892Z,69.32
2023-01-28T20:17:33.319Z,69.20
2023-01-28T20:20:05.454Z,68.91
2023-01-28T20:22:38.727Z,69.06
2023-01-28T20:25:11.246Z,69.23
2023-01-28T20:27:41.983Z,68.96
2023-01-28T20:30:15.127Z,68.67
2023-01-28T20:32:45.682Z,68.63
2023-01-28T20:35:18.421Z,68.73
2023-01-28T20:37:49.458Z,69.24
2023-01-28T20:40:21.370Z,69.34
2023-01-28T20:42:53.183Z,69.19
2023-01-28T20:45:25.116Z,69.17
2023-01-28T20:47:57.168Z,68.70
2023-01-28T20:50:31.457Z,68.76
2023-01-28T20:53:03.702Z,69.01
2023-01-28T20:55:35.456Z,68.83
2023-01-28T20:58:06.717Z,68.45
2023-01-28T21:00:38.414Z,68.46
2023-01-28T21:03:09.729Z,68.52
2023-01-28T21:05:40.555Z,68.63
2023-01-28T21:08:16.721Z,68.55
2023-01-28T21:10:47.488Z,68.67
2023-01-28T21:13:18.572Z,69.10
2023-01-28T21:15:56.385Z,69.44
2023-01-28T21:18:27.604Z,69.45
2023-01-28T21:21:02.796Z,69.60
2023-01-28T21:23:33.447Z,69.41
2023-01-28T21:26:05.907Z,69.26
2023-01-28T21:28:36.431Z,69.13
2023-01-28T21:31:13.173Z,69.08
2023-01-28T21:33:45.241Z,69.44
2023-01-28T21:36:21.192Z,69.69
2023-01-28T21:38:55.478Z,69.91
2023-01-28T21:41:30.896Z,69.84
2023-01-28T21:44:02.573Z,69.90
2023-01-28T21:46:36.315Z,69.55
2023-01-28T21:49:08.062Z,69.51
2023-01-28T21:51:41.244Z,69.37
2023-01-28T21:54:17.775Z,69.41
2023-01-28T21:56:51.246Z,69.27
2023-01-28T21:59:29.372Z,69.33
2023-01-28T22:02:03.257Z,69.26
2023-01-28T22:04:37.551Z,69.35
2023-01-28T22:07:11.234Z,69.37
2023-01-28T22:09:44.998Z,69.29
2023-01-28T22:12:17.378Z,69.90
2023-01-28T22:14:50.427Z,69.76
2023-01-28T22:17:23.333Z,69.37
2023-01-28T22:19:55.291Z,69.60
2023-01-28T22:22:28.746Z,69.48
2023-01-28T22:25:02.123Z,69.77
2023-01-28T22:27:34.274Z,69.56
2023-01-28T22:36:43.894Z,69.42
2023-01-28T22:39:16.307Z,69.49
2023-01-28T22:41:47.315Z,69.45
2023-01-28T22:44:19.879Z,69.64
2023-01-28T22:46:50.346Z,69.57
2023-01-28T22:49:22.164Z,69.38
2023-01-28T22:51:52.492Z,69.46
2023-01-28T22:54:23.220Z,69.50
2023-01-28T22:56:53.640Z,69.42
2023-01-28T22:59:24.033Z,69.53
2023-01-28T23:01:54.448Z,69.69
2023-01-28T23:04:24.843Z,69.69
2023-01-28T23:06:55.228Z,69.68
2023-01-28T23:09:25.959Z,69.67
2023-01-28T23:11:56.377Z,69.85
2023-01-28T23:14:47.740Z,69.64
2023-01-28T23:17:35.896Z,69.82
2023-01-28T23:20:34.088Z,69.87
2023-01-28T23:23:21.982Z,69.98
2023-01-28T23:25:52.427Z,70.29
2023-01-28T23:28:22.825Z,70.33
2023-01-28T23:30:53.441Z,70.10
2023-01-28T23:33:24.437Z,70.04
2023-01-28T23:35:54.782Z,70.12
2023-01-28T23:38:25.248Z,69.98
2023-01-28T23:40:55.869Z,69.89
2023-01-28T23:43:26.309Z,70.00
2023-01-28T23:45:56.685Z,70.10
2023-01-28T23:48:27.082Z,70.23
2023-01-28T23:50:58.464Z,70.05
2023-01-28T23:53:28.910Z,70.18
2023-01-28T23:55:59.543Z,70.37
2023-01-28T23:58:42.624Z,70.27
